Time;durP1;ratioP1;P1;durP2;ratioP2;P2;SDS_P1;SDS_P2;PMS_P1;PMS_P2;Temp;Humidity;BMP_temperature;BMP_pressure;BME280_temperature;BME280_humidity;BME280_pressure;Samples;Min_cycle;Max_cycle;Signal;HPM_P1;HPM_P2
2023/05/22 00:01:31;;;;;;;8.50;7.75;;;18.60;68.20;;;;;;947939;148;27369;-76
2023/05/22 00:03:56;;;;;;;8.55;7.72;;;18.60;68.30;;;;;;946529;148;27392;-75
2023/05/22 00:06:23;;;;;;;8.98;8.08;;;18.60;68.40;;;;;;946566;148;27455;-75
2023/05/22 00:08:49;;;;;;;8.40;7.70;;;18.50;68.60;;;;;;934609;150;27467;-75
2023/05/22 00:11:15;;;;;;;9.28;8.40;;;18.50;68.80;;;;;;918368;152;27368;-75
2023/05/22 00:13:42;;;;;;;8.68;7.97;;;18.50;69.00;;;;;;934465;149;27322;-75
2023/05/22 00:16:09;;;;;;;9.35;8.45;;;18.40;69.20;;;;;;934496;150;27385;-75
2023/05/22 00:18:35;;;;;;;8.55;7.78;;;18.40;69.20;;;;;;934994;149;27361;-75
2023/05/22 00:21:02;;;;;;;9.35;8.28;;;18.30;69.30;;;;;;919600;152;27410;-76
2023/05/22 00:23:28;;;;;;;9.10;8.20;;;18.30;69.30;;;;;;935005;149;27338;-76
2023/05/22 00:25:55;;;;;;;8.50;7.70;;;18.20;69.60;;;;;;917626;152;27413;-75
2023/05/22 00:28:22;;;;;;;8.05;7.25;;;18.20;69.60;;;;;;911612;153;27520;-75
2023/05/22 00:30:48;;;;;;;9.15;8.25;;;18.20;69.80;;;;;;916869;153;27358;-75
2023/05/22 00:33:15;;;;;;;9.20;8.30;;;18.10;69.90;;;;;;927077;151;27405;-75
2023/05/22 00:35:41;;;;;;;9.88;8.75;;;18.10;70.10;;;;;;935050;149;27310;-75
2023/05/22 00:38:08;;;;;;;8.95;8.15;;;18.00;70.30;;;;;;934431;149;27470;-75
2023/05/22 00:40:35;;;;;;;8.88;8.08;;;18.00;70.50;;;;;;918673;152;27372;-76
2023/05/22 00:43:07;;;;;;;9.60;8.75;;;18.00;70.80;;;;;;934455;149;27408;-75
2023/05/22 00:45:28;;;;;;;8.95;8.13;;;17.90;70.90;;;;;;916364;152;27366;-75
2023/05/22 00:47:54;;;;;;;9.50;8.58;;;17.90;71.10;;;;;;935118;150;27362;-75
2023/05/22 00:50:21;;;;;;;10.65;8.45;;;17.90;71.30;;;;;;935176;149;27453;-75
2023/05/22 00:52:48;;;;;;;8.95;8.15;;;17.80;71.50;;;;;;918103;152;27438;-75
2023/05/22 00:55:14;;;;;;;8.43;7.62;;;17.80;71.70;;;;;;910933;152;27425;-75
2023/05/22 00:57:41;;;;;;;9.65;8.75;;;17.80;71.80;;;;;;919177;152;27345;-75
2023/05/22 01:00:09;;;;;;;9.95;9.05;;;17.70;71.70;;;;;;912264;153;27435;-75
2023/05/22 01:02:35;;;;;;;9.43;8.58;;;17.70;71.30;;;;;;926407;152;27377;-75
2023/05/22 01:05:03;;;;;;;14.05;9.28;;;17.70;72.20;;;;;;925880;152;27343;-75
2023/05/22 01:07:27;;;;;;;10.43;9.53;;;17.70;72.40;;;;;;925932;151;27858;-75
2023/05/22 01:09:55;;;;;;;9.93;8.88;;;17.60;72.50;;;;;;924990;154;27534;-75
2023/05/22 01:12:20;;;;;;;10.25;9.35;;;17.60;72.70;;;;;;924674;154;27478;-75
2023/05/22 01:14:59;;;;;;;9.35;8.55;;;17.60;72.90;;;;;;923012;153;27285;-75
2023/05/22 01:17:28;;;;;;;9.88;9.00;;;17.60;73.20;;;;;;911648;156;27420;-75
2023/05/22 01:20:00;;;;;;;11.45;8.60;;;17.60;73.20;;;;;;916793;152;27416;-75
2023/05/22 01:22:30;;;;;;;10.20;9.23;;;17.50;73.40;;;;;;936950;152;27377;-75
2023/05/22 01:25:00;;;;;;;10.28;9.30;;;17.50;73.60;;;;;;936640;150;27362;-75
2023/05/22 01:27:38;;;;;;;10.15;9.13;;;17.50;73.80;;;;;;936918;152;27496;-75
2023/05/22 01:30:17;;;;;;;10.70;9.70;;;17.50;73.90;;;;;;938107;152;27376;-75
2023/05/22 01:32:43;;;;;;;9.63;8.70;;;17.60;74.10;;;;;;938577;152;27388;-75
2023/05/22 01:35:10;;;;;;;10.50;9.50;;;17.50;74.20;;;;;;938667;150;27419;-75
2023/05/22 01:37:36;;;;;;;10.23;9.40;;;17.60;74.40;;;;;;938631;152;27385;-75
2023/05/22 01:40:05;;;;;;;9.53;8.73;;;17.50;74.60;;;;;;939198;152;27454;-75
2023/05/22 01:42:30;;;;;;;9.63;8.73;;;17.60;74.90;;;;;;937291;152;27423;-75
2023/05/22 01:44:56;;;;;;;10.13;9.23;;;17.60;74.90;;;;;;938792;150;27418;-75
2023/05/22 01:47:23;;;;;;;10.45;9.18;;;17.60;74.90;;;;;;938425;151;27369;-75
2023/05/22 01:49:50;;;;;;;10.00;9.10;;;17.60;75.40;;;;;;939090;150;27301;-75
2023/05/22 01:52:44;;;;;;;9.83;8.93;;;17.60;75.30;;;;;;938574;152;27449;-75
2023/05/22 01:55:13;;;;;;;10.45;9.28;;;17.60;75.40;;;;;;917161;152;27517;-75
2023/05/22 01:57:46;;;;;;;10.35;9.35;;;17.60;75.30;;;;;;915128;155;27821;-75
2023/05/22 02:00:14;;;;;;;9.78;8.88;;;17.60;75.60;;;;;;922255;155;27518;-75
2023/05/22 02:02:41;;;;;;;9.90;9.00;;;17.60;75.80;;;;;;922265;155;27518;-75
2023/05/22 02:05:07;;;;;;;10.25;9.00;;;17.60;76.00;;;;;;910976;157;27316;-75
2023/05/22 02:07:34;;;;;;;9.83;8.88;;;17.60;76.10;;;;;;925124;152;27405;-75
2023/05/22 02:10:01;;;;;;;9.73;8.83;;;17.60;76.30;;;;;;926335;152;27404;-75
2023/05/22 02:12:27;;;;;;;9.30;8.40;;;17.60;76.40;;;;;;926687;152;27445;-75
2023/05/22 02:14:54;;;;;;;9.98;9.08;;;17.60;76.60;;;;;;913358;153;27290;-75
2023/05/22 02:17:20;;;;;;;9.83;8.98;;;17.60;77.60;;;;;;935091;149;27295;-75
2023/05/22 02:19:47;;;;;;;9.75;8.85;;;17.60;76.90;;;;;;912151;153;27484;-74
2023/05/22 02:22:14;;;;;;;10.18;9.13;;;17.60;77.00;;;;;;934448;150;27451;-74
2023/05/22 02:24:43;;;;;;;9.43;8.53;;;17.60;77.10;;;;;;936133;149;27388;-74
2023/05/22 02:27:09;;;;;;;10.25;9.28;;;17.60;77.20;;;;;;934683;149;27325;-76
2023/05/22 02:29:36;;;;;;;9.68;8.73;;;17.60;77.40;;;;;;934979;149;27410;-76
2023/05/22 02:32:03;;;;;;;9.90;9.00;;;17.50;77.50;;;;;;919010;152;27385;-76
2023/05/22 02:34:30;;;;;;;9.45;8.65;;;17.50;77.50;;;;;;934275;150;27416;-76
2023/05/22 02:36:56;;;;;;;9.78;8.88;;;17.50;78.50;;;;;;912324;153;27445;-76
2023/05/22 02:39:22;;;;;;;10.30;9.30;;;17.50;77.90;;;;;;912205;152;27558;-76
2023/05/22 02:41:49;;;;;;;10.48;8.70;;;17.50;78.20;;;;;;918621;152;27403;-76
2023/05/22 02:44:15;;;;;;;10.55;9.18;;;17.50;78.30;;;;;;912702;153;27388;-76
2023/05/22 02:46:42;;;;;;;10.38;9.38;;;17.40;78.30;;;;;;935013;149;27314;-76
2023/05/22 02:49:09;;;;;;;10.60;9.70;;;17.40;78.50;;;;;;918873;152;27288;-76
2023/05/22 02:51:35;;;;;;;10.48;9.48;;;17.40;78.80;;;;;;918603;152;27441;-76
2023/05/22 02:54:02;;;;;;;10.63;9.63;;;17.40;79.10;;;;;;919497;152;27406;-75
2023/05/22 02:56:28;;;;;;;10.20;9.30;;;17.30;79.20;;;;;;934909;149;27371;-76
2023/05/22 02:58:56;;;;;;;9.65;8.75;;;17.30;79.50;;;;;;933982;150;27384;-76
2023/05/22 03:01:22;;;;;;;9.38;8.58;;;17.30;79.70;;;;;;918425;152;27273;-76
2023/05/22 03:03:49;;;;;;;9.85;9.00;;;17.30;79.90;;;;;;923484;152;27378;-76
2023/05/22 03:06:15;;;;;;;10.70;9.75;;;17.20;80.10;;;;;;919073;152;27366;-76
2023/05/22 03:08:43;;;;;;;9.40;8.40;;;17.20;80.30;;;;;;934582;150;27366;-76
2023/05/22 03:11:08;;;;;;;10.72;9.28;;;17.20;80.50;;;;;;934142;149;27293;-76
2023/05/22 03:13:35;;;;;;;9.80;8.88;;;17.20;80.80;;;;;;919319;152;27384;-76
2023/05/22 03:16:01;;;;;;;10.10;9.18;;;17.20;81.20;;;;;;919259;152;27789;-75
2023/05/22 03:18:28;;;;;;;11.50;10.38;;;17.10;81.40;;;;;;912148;153;27475;-76
2023/05/22 03:20:54;;;;;;;11.43;9.60;;;17.10;81.70;;;;;;934609;150;27419;-76
2023/05/22 03:23:21;;;;;;;10.13;9.13;;;17.10;82.10;;;;;;934935;149;27318;-76
2023/05/22 03:25:47;;;;;;;10.10;9.10;;;17.10;82.30;;;;;;918073;152;27384;-76
2023/05/22 03:28:14;;;;;;;9.80;8.90;;;17.00;82.50;;;;;;911348;153;27437;-76
2023/05/22 03:30:41;;;;;;;9.60;8.60;;;17.00;82.70;;;;;;912111;153;27291;-76
2023/05/22 03:33:07;;;;;;;10.20;9.30;;;17.00;82.90;;;;;;926317;152;27752;-75
2023/05/22 03:35:35;;;;;;;9.60;8.78;;;17.00;83.10;;;;;;926782;152;27393;-76
2023/05/22 03:38:00;;;;;;;9.78;8.88;;;17.00;83.50;;;;;;927878;151;27470;-75
2023/05/22 03:40:27;;;;;;;10.00;9.10;;;16.90;83.70;;;;;;912878;152;27414;-76
2023/05/22 03:42:54;;;;;;;9.45;8.58;;;16.90;84.10;;;;;;927108;152;27402;-75
2023/05/22 03:45:20;;;;;;;9.95;8.95;;;16.90;84.40;;;;;;918638;152;27389;-76
2023/05/22 03:47:47;;;;;;;10.43;9.53;;;16.90;84.70;;;;;;933846;149;27340;-76
2023/05/22 03:50:13;;;;;;;10.23;9.33;;;16.90;85.20;;;;;;912143;152;27870;-76
2023/05/22 03:52:40;;;;;;;10.60;9.70;;;16.80;85.50;;;;;;917610;152;27323;-76
2023/05/22 03:55:07;;;;;;;10.10;8.85;;;16.80;85.80;;;;;;934564;149;27278;-76
2023/05/22 03:57:33;;;;;;;10.25;9.35;;;16.80;86.30;;;;;;934766;149;27466;-76
2023/05/22 04:00:08;;;;;;;10.20;9.30;;;16.80;86.70;;;;;;934829;149;27447;-76
2023/05/22 04:02:28;;;;;;;9.75;8.95;;;16.80;87.00;;;;;;917858;152;27406;-76
2023/05/22 04:04:53;;;;;;;10.58;9.48;;;16.80;87.50;;;;;;910269;152;27437;-76
2023/05/22 04:07:20;;;;;;;9.50;8.68;;;16.80;87.90;;;;;;933432;149;27366;-76
2023/05/22 04:09:46;;;;;;;10.20;9.20;;;16.90;88.30;;;;;;918970;152;27422;-76
2023/05/22 04:12:13;;;;;;;9.70;8.80;;;16.90;88.60;;;;;;912067;153;27360;-76
2023/05/22 04:14:39;;;;;;;10.00;9.03;;;16.90;88.90;;;;;;926932;151;27453;-76
2023/05/22 04:17:06;;;;;;;9.85;9.05;;;17.00;89.50;;;;;;912622;153;27368;-76
2023/05/22 04:19:33;;;;;;;9.50;8.60;;;17.00;89.80;;;;;;935050;149;27480;-76
2023/05/22 04:21:59;;;;;;;9.93;9.03;;;17.10;90.00;;;;;;935554;149;27397;-76
2023/05/22 04:24:26;;;;;;;10.03;9.05;;;17.10;90.10;;;;;;934683;149;27342;-76
2023/05/22 04:26:52;;;;;;;9.68;8.78;;;17.20;90.20;;;;;;934216;149;27427;-76
2023/05/22 04:29:21;;;;;;;9.68;8.78;;;17.30;90.20;;;;;;918835;152;27364;-76
2023/05/22 04:31:46;;;;;;;9.65;8.65;;;17.30;90.30;;;;;;934830;149;27364;-76
2023/05/22 04:34:12;;;;;;;9.35;8.38;;;17.40;90.40;;;;;;934662;150;27321;-76
2023/05/22 04:36:39;;;;;;;9.80;8.90;;;17.50;90.50;;;;;;911409;152;27375;-76
2023/05/22 04:39:05;;;;;;;9.78;8.88;;;17.60;90.60;;;;;;913393;152;27296;-76
2023/05/22 04:41:33;;;;;;;10.18;9.28;;;17.70;90.60;;;;;;918979;152;27375;-76
2023/05/22 04:43:59;;;;;;;9.53;8.73;;;17.80;90.60;;;;;;917472;152;27501;-76
2023/05/22 04:46:27;;;;;;;9.60;8.70;;;17.80;90.60;;;;;;919217;152;27382;-76
2023/05/22 04:48:52;;;;;;;9.53;8.70;;;17.90;90.50;;;;;;932130;149;27246;-76
2023/05/22 04:51:18;;;;;;;9.60;8.70;;;18.00;90.50;;;;;;927173;152;27455;-76
2023/05/22 04:53:46;;;;;;;9.50;8.70;;;18.10;90.40;;;;;;927437;152;27404;-76
2023/05/22 04:56:11;;;;;;;9.28;8.48;;;18.20;90.40;;;;;;926872;152;27455;-76
2023/05/22 04:58:39;;;;;;;10.70;9.70;;;18.40;90.40;;;;;;927394;151;27368;-76
2023/05/22 05:01:05;;;;;;;9.75;8.95;;;18.50;90.30;;;;;;926252;152;27434;-76
2023/05/22 05:03:31;;;;;;;10.15;9.23;;;18.60;90.30;;;;;;912757;153;27408;-76
2023/05/22 05:05:59;;;;;;;10.38;9.40;;;18.70;90.30;;;;;;935305;149;27374;-76
2023/05/22 05:08:25;;;;;;;9.63;8.68;;;18.80;90.40;;;;;;917993;152;27359;-76
2023/05/22 05:10:51;;;;;;;10.63;9.70;;;19.00;90.50;;;;;;924124;152;27385;-76
2023/05/22 05:13:18;;;;;;;10.18;9.28;;;19.20;90.50;;;;;;934765;149;27322;-76
2023/05/22 05:15:44;;;;;;;9.60;8.73;;;19.40;90.80;;;;;;934639;149;27369;-76
2023/05/22 05:18:11;;;;;;;9.50;8.70;;;19.70;91.00;;;;;;934894;149;27372;-76
2023/05/22 05:20:37;;;;;;;9.30;8.40;;;20.00;91.50;;;;;;918643;152;27363;-76
2023/05/22 05:23:04;;;;;;;10.03;9.18;;;20.30;91.00;;;;;;934267;149;27452;-76
2023/05/22 05:25:31;;;;;;;10.13;9.13;;;20.70;90.40;;;;;;925078;151;27459;-76
2023/05/22 05:27:57;;;;;;;9.23;8.33;;;21.10;89.70;;;;;;919002;152;27772;-76
2023/05/22 05:30:24;;;;;;;9.73;8.95;;;21.50;89.30;;;;;;912847;153;27315;-76
2023/05/22 05:32:50;;;;;;;9.38;8.58;;;21.90;87.90;;;;;;933909;149;27436;-76
2023/05/22 05:35:17;;;;;;;8.98;8.20;;;22.40;85.90;;;;;;917978;152;27324;-76
2023/05/22 05:37:43;;;;;;;9.50;8.70;;;22.80;83.80;;;;;;912231;153;27475;-76
2023/05/22 05:40:10;;;;;;;9.70;8.80;;;23.10;81.90;;;;;;918389;152;27369;-76
2023/05/22 05:42:37;;;;;;;9.70;8.80;;;23.50;79.90;;;;;;922299;152;27418;-76
2023/05/22 05:45:03;;;;;;;10.08;9.18;;;23.80;78.10;;;;;;911845;153;27343;-76
2023/05/22 05:47:30;;;;;;;8.13;7.47;;;24.10;76.50;;;;;;918948;153;27381;-76
2023/05/22 05:49:56;;;;;;;8.95;8.20;;;24.40;75.20;;;;;;927023;151;27337;-76
2023/05/22 05:52:25;;;;;;;8.53;7.83;;;24.60;73.90;;;;;;935676;149;27311;-76
2023/05/22 05:54:50;;;;;;;9.55;8.30;;;24.80;72.80;;;;;;919090;152;27355;-76
2023/05/22 05:57:16;;;;;;;8.78;8.08;;;25.00;71.80;;;;;;912444;153;27467;-76
2023/05/22 05:59:43;;;;;;;8.70;8.00;;;25.20;71.30;;;;;;934257;150;27410;-76
2023/05/22 06:02:09;;;;;;;9.08;8.25;;;25.40;70.40;;;;;;918256;152;27381;-76
2023/05/22 06:04:36;;;;;;;8.48;7.62;;;25.60;70.00;;;;;;933739;149;27286;-76
2023/05/22 06:07:03;;;;;;;8.75;8.03;;;25.80;69.50;;;;;;916278;152;27474;-77
2023/05/22 06:09:29;;;;;;;9.38;8.53;;;26.00;68.90;;;;;;918401;152;27420;-76
2023/05/22 06:11:56;;;;;;;8.50;7.80;;;26.20;68.30;;;;;;935154;149;27468;-76
2023/05/22 06:14:22;;;;;;;9.08;8.28;;;26.40;67.70;;;;;;934281;149;27463;-76
2023/05/22 06:16:49;;;;;;;8.63;7.80;;;26.60;67.10;;;;;;916717;152;27311;-76
2023/05/22 06:19:16;;;;;;;8.68;7.85;;;26.80;66.30;;;;;;912059;153;27475;-76
2023/05/22 06:21:42;;;;;;;8.75;8.00;;;27.00;65.60;;;;;;934449;149;27343;-76
2023/05/22 06:24:09;;;;;;;8.80;8.10;;;27.20;65.10;;;;;;934716;149;27404;-75
2023/05/22 06:26:35;;;;;;;8.63;7.95;;;27.30;64.50;;;;;;934633;149;27424;-76
2023/05/22 06:29:02;;;;;;;9.13;8.23;;;27.50;64.00;;;;;;918658;152;27468;-75
2023/05/22 06:31:28;;;;;;;9.18;8.38;;;27.60;63.50;;;;;;918800;152;27379;-75
2023/05/22 06:33:55;;;;;;;8.78;8.08;;;27.80;62.90;;;;;;918695;152;27445;-76
2023/05/22 06:36:22;;;;;;;9.35;8.38;;;28.00;62.60;;;;;;918759;152;27344;-76
2023/05/22 06:38:48;;;;;;;12.58;7.97;;;28.20;62.60;;;;;;923447;152;27304;-75
2023/05/22 06:41:15;;;;;;;8.83;8.13;;;28.40;62.50;;;;;;933804;149;27374;-76
2023/05/22 06:43:41;;;;;;;8.68;7.95;;;28.80;62.40;;;;;;917306;152;27373;-76
2023/05/22 06:46:08;;;;;;;8.83;7.92;;;29.10;62.20;;;;;;934572;149;27408;-75
2023/05/22 06:48:35;;;;;;;9.13;7.70;;;29.50;62.50;;;;;;934490;150;27388;-76
2023/05/22 06:51:01;;;;;;;8.50;7.70;;;29.90;61.70;;;;;;918822;152;27392;-75
2023/05/22 06:53:28;;;;;;;8.43;7.62;;;30.40;61.20;;;;;;912218;153;27397;-76
2023/05/22 06:55:54;;;;;;;7.70;7.10;;;30.90;60.40;;;;;;934783;150;27335;-76
2023/05/22 06:58:21;;;;;;;8.23;7.53;;;31.40;59.60;;;;;;934911;149;27314;-76
2023/05/22 07:00:48;;;;;;;8.10;7.40;;;31.90;58.70;;;;;;918740;152;27383;-76
2023/05/22 07:03:14;;;;;;;8.08;7.47;;;32.40;57.80;;;;;;934097;150;27398;-76
2023/05/22 07:05:41;;;;;;;6.40;5.80;;;32.80;56.90;;;;;;931248;149;26186;-76
2023/05/22 07:08:07;;;;;;;7.53;6.92;;;33.20;56.00;;;;;;912102;153;27341;-76
2023/05/22 07:10:34;;;;;;;8.10;7.28;;;33.60;55.50;;;;;;912393;152;27517;-76
2023/05/22 07:13:00;;;;;;;7.75;7.10;;;34.00;54.90;;;;;;913165;152;26337;-76
2023/05/22 07:15:27;;;;;;;8.08;7.28;;;34.40;54.40;;;;;;934515;149;26536;-76
2023/05/22 07:17:54;;;;;;;8.75;7.45;;;34.70;53.90;;;;;;934105;149;26242;-76
2023/05/22 07:20:20;;;;;;;7.83;7.17;;;35.10;53.30;;;;;;917517;152;26267;-76
2023/05/22 07:22:47;;;;;;;7.97;7.35;;;35.50;52.80;;;;;;912172;153;26397;-76
2023/05/22 07:25:13;;;;;;;8.18;7.53;;;35.90;52.20;;;;;;935121;149;26403;-76
2023/05/22 07:27:40;;;;;;;8.18;7.42;;;36.30;51.60;;;;;;911737;153;26227;-76
2023/05/22 07:30:07;;;;;;;7.47;6.87;;;36.70;51.10;;;;;;927020;152;26350;-76
2023/05/22 07:32:33;;;;;;;7.37;6.67;;;37.20;50.30;;;;;;927299;152;26389;-76
2023/05/22 07:35:00;;;;;;;7.12;6.62;;;37.60;49.60;;;;;;913899;152;26274;-76
2023/05/22 07:37:27;;;;;;;7.37;6.78;;;37.90;49.00;;;;;;922679;152;26245;-76
2023/05/22 07:39:53;;;;;;;7.35;6.60;;;38.30;48.10;;;;;;935097;149;26275;-76
2023/05/22 07:42:20;;;;;;;7.08;6.37;;;38.60;47.30;;;;;;918650;152;26250;-76
2023/05/22 07:44:46;;;;;;;6.45;5.85;;;38.90;46.30;;;;;;934727;149;26301;-76
2023/05/22 07:47:13;;;;;;;6.75;6.25;;;39.20;46.10;;;;;;910881;152;26290;-76
2023/05/22 07:49:39;;;;;;;7.00;6.40;;;39.50;45.80;;;;;;935248;149;26218;-76
2023/05/22 07:52:06;;;;;;;5.78;5.37;;;39.70;45.30;;;;;;923496;152;26311;-76
2023/05/22 07:54:33;;;;;;;6.10;5.60;;;40.20;44.90;;;;;;918349;152;26441;-76
2023/05/22 07:57:02;;;;;;;5.47;5.08;;;40.50;44.50;;;;;;935501;149;26343;-76
2023/05/22 07:59:26;;;;;;;5.78;5.28;;;40.80;43.50;;;;;;918892;152;26328;-76
2023/05/22 08:01:52;;;;;;;4.80;4.40;;;41.20;42.70;;;;;;919105;152;26332;-77
2023/05/22 08:04:19;;;;;;;5.45;4.95;;;41.60;42.10;;;;;;934794;149;26190;-74
2023/05/22 08:06:46;;;;;;;5.12;4.72;;;42.00;41.50;;;;;;911955;153;26388;-74
2023/05/22 08:09:12;;;;;;;5.33;4.90;;;42.40;40.90;;;;;;913765;153;26298;-74
2023/05/22 08:11:41;;;;;;;5.33;4.80;;;42.80;40.50;;;;;;912844;152;26262;-74
2023/05/22 08:14:06;;;;;;;4.80;4.30;;;43.20;40.10;;;;;;931967;151;26252;-74
2023/05/22 08:16:32;;;;;;;4.72;4.40;;;43.60;39.60;;;;;;931955;151;26393;-74
2023/05/22 08:18:58;;;;;;;5.03;4.53;;;44.00;38.50;;;;;;931912;151;26317;-75
2023/05/22 08:21:25;;;;;;;4.80;4.40;;;44.40;37.80;;;;;;932157;151;26196;-75
2023/05/22 08:23:52;;;;;;;5.83;4.25;;;44.70;37.20;;;;;;932522;151;26636;-75
2023/05/22 08:26:19;;;;;;;5.58;4.17;;;45.10;36.50;;;;;;931987;151;26307;-75
2023/05/22 08:28:45;;;;;;;4.95;4.55;;;45.40;36.10;;;;;;932339;151;26267;-75
2023/05/22 08:31:11;;;;;;;4.37;4.00;;;45.60;35.50;;;;;;931880;151;26276;-75
2023/05/22 08:33:38;;;;;;;4.15;3.85;;;45.80;34.90;;;;;;931994;150;26232;-74
2023/05/22 08:36:05;;;;;;;5.58;3.92;;;46.00;34.70;;;;;;929361;151;26263;-74
2023/05/22 08:38:31;;;;;;;4.53;4.12;;;46.30;34.60;;;;;;931712;150;26783;-75
2023/05/22 08:40:58;;;;;;;4.30;4.00;;;46.60;34.10;;;;;;932191;150;26297;-75
2023/05/22 08:43:24;;;;;;;4.03;3.72;;;46.80;33.40;;;;;;932882;151;26264;-75
2023/05/22 08:46:00;;;;;;;4.00;3.60;;;47.00;33.00;;;;;;933031;151;26265;-75
2023/05/22 08:48:26;;;;;;;4.25;3.90;;;47.30;32.50;;;;;;915987;152;26763;-75
2023/05/22 08:50:57;;;;;;;4.67;4.25;;;47.50;32.20;;;;;;915472;152;26356;-75
2023/05/22 08:53:26;;;;;;;4.37;4.05;;;47.60;31.80;;;;;;915504;152;26322;-75
2023/05/22 08:55:52;;;;;;;4.22;3.90;;;47.80;31.50;;;;;;916792;152;26336;-75
2023/05/22 08:58:18;;;;;;;4.42;4.12;;;47.90;31.30;;;;;;916557;152;26293;-75
2023/05/22 09:00:45;;;;;;;4.33;3.92;;;47.90;30.90;;;;;;933177;150;26279;-75
2023/05/22 09:03:14;;;;;;;4.75;4.35;;;48.00;30.70;;;;;;917217;152;26317;-75
2023/05/22 09:05:41;;;;;;;4.22;3.92;;;48.00;30.40;;;;;;933020;150;26304;-75
2023/05/22 09:08:07;;;;;;;4.28;3.98;;;48.10;30.20;;;;;;932242;150;26280;-75
2023/05/22 09:10:34;;;;;;;4.70;4.35;;;48.10;29.90;;;;;;931648;150;26380;-75
2023/05/22 09:13:03;;;;;;;4.28;3.98;;;48.20;29.70;;;;;;933120;150;26230;-75
2023/05/22 09:15:30;;;;;;;4.00;3.70;;;48.20;29.60;;;;;;918561;152;26301;-75
2023/05/22 09:17:56;;;;;;;4.37;3.98;;;48.20;29.40;;;;;;934236;150;26249;-75
2023/05/22 09:20:23;;;;;;;4.25;3.95;;;48.20;29.30;;;;;;916580;152;26367;-75
2023/05/22 09:22:49;;;;;;;4.45;4.15;;;48.20;29.20;;;;;;921167;152;26292;-76
2023/05/22 09:25:19;;;;;;;4.25;3.58;;;48.20;29.30;;;;;;917928;152;26386;-78
2023/05/22 09:27:45;;;;;;;3.85;3.55;;;48.20;29.20;;;;;;922432;152;26298;-78
2023/05/22 09:30:12;;;;;;;4.62;4.22;;;48.30;29.00;;;;;;924123;152;26251;-78
2023/05/22 09:32:39;;;;;;;4.78;3.87;;;48.30;28.70;;;;;;918887;152;26293;-78
2023/05/22 09:35:05;;;;;;;4.28;3.90;;;48.40;28.60;;;;;;922058;152;26194;-78
2023/05/22 09:37:34;;;;;;;3.83;3.52;;;48.40;28.50;;;;;;911979;153;26393;-78
2023/05/22 09:40:04;;;;;;;4.10;3.77;;;48.40;28.30;;;;;;935085;149;26316;-78
2023/05/22 09:42:30;;;;;;;4.37;3.70;;;48.40;27.90;;;;;;918264;152;26270;-78
2023/05/22 09:44:57;;;;;;;3.85;3.55;;;48.30;27.90;;;;;;923509;152;26289;-78
2023/05/22 09:47:23;;;;;;;3.87;3.58;;;48.20;27.70;;;;;;918813;152;26264;-78
2023/05/22 09:49:50;;;;;;;3.87;3.67;;;48.10;27.80;;;;;;934322;149;26238;-78
2023/05/22 09:52:16;;;;;;;5.28;3.80;;;47.90;27.70;;;;;;911890;153;26362;-77
2023/05/22 09:54:55;;;;;;;4.70;4.30;;;47.60;27.60;;;;;;912238;153;26301;-77
2023/05/22 09:57:18;;;;;;;4.83;4.53;;;47.30;27.50;;;;;;933731;149;26367;-77
2023/05/22 09:59:45;;;;;;;4.85;4.20;;;46.90;27.60;;;;;;935442;149;26225;-77
2023/05/22 10:02:12;;;;;;;4.30;4.00;;;46.60;27.70;;;;;;918937;152;26381;-78
2023/05/22 10:04:39;;;;;;;4.45;4.15;;;46.10;27.70;;;;;;934359;149;26284;-78
2023/05/22 10:07:05;;;;;;;5.10;4.70;;;45.80;27.90;;;;;;916431;152;26360;-78
2023/05/22 10:09:33;;;;;;;4.87;4.42;;;45.50;27.90;;;;;;935618;149;26342;-78
2023/05/22 10:11:58;;;;;;;5.35;4.60;;;45.10;27.50;;;;;;918893;152;26250;-78
2023/05/22 10:14:24;;;;;;;4.62;4.33;;;44.70;27.80;;;;;;926749;151;26849;-78
2023/05/22 10:16:51;;;;;;;4.83;4.33;;;44.20;27.80;;;;;;933809;151;26295;-77
2023/05/22 10:19:17;;;;;;;4.97;4.45;;;43.80;27.80;;;;;;931261;151;26236;-78
2023/05/22 10:21:44;;;;;;;5.92;5.30;;;43.20;27.80;;;;;;931836;151;26240;-78
2023/05/22 10:24:11;;;;;;;5.37;4.92;;;42.70;28.20;;;;;;931768;151;26256;-77
2023/05/22 10:26:37;;;;;;;4.97;4.62;;;42.20;28.50;;;;;;928383;151;26470;-77
2023/05/22 10:29:19;;;;;;;5.33;4.92;;;41.70;28.90;;;;;;927515;151;26334;-77
2023/05/22 10:31:51;;;;;;;5.00;4.65;;;41.40;29.00;;;;;;943749;151;27308;-77
2023/05/22 10:34:18;;;;;;;5.25;4.85;;;40.90;29.00;;;;;;943578;151;26282;-77
2023/05/22 10:36:53;;;;;;;4.95;4.62;;;40.50;29.30;;;;;;929452;151;26316;-77
2023/05/22 10:39:23;;;;;;;5.83;4.87;;;40.20;29.50;;;;;;923763;151;26337;-77
2023/05/22 10:41:49;;;;;;;5.92;5.53;;;39.90;29.50;;;;;;929008;151;26573;-77
2023/05/22 10:44:16;;;;;;;7.28;5.28;;;39.60;29.70;;;;;;946977;149;26359;-77
2023/05/22 10:46:42;;;;;;;7.20;5.20;;;39.30;29.90;;;;;;947190;148;26352;-77
2023/05/22 10:49:09;;;;;;;5.85;5.30;;;39.00;30.00;;;;;;946700;148;26317;-76
2023/05/22 10:51:35;;;;;;;5.03;4.67;;;38.80;30.20;;;;;;945115;148;26325;-77
2023/05/22 10:54:04;;;;;;;4.95;4.55;;;38.60;30.50;;;;;;947535;148;26208;-77
2023/05/22 10:56:34;;;;;;;4.55;4.25;;;38.40;30.70;;;;;;947128;149;26283;-77
2023/05/22 10:59:07;;;;;;;5.15;4.58;;;38.20;30.70;;;;;;947190;148;27278;-77
2023/05/22 11:01:39;;;;;;;5.08;4.67;;;38.00;30.90;;;;;;947365;149;27402;-76
2023/05/22 11:04:11;;;;;;;5.12;4.67;;;37.80;31.30;;;;;;946351;148;26291;-76
2023/05/22 11:06:37;;;;;;;5.42;5.03;;;37.70;31.40;;;;;;946426;151;27364;-76
2023/05/22 11:09:16;;;;;;;5.40;4.62;;;37.50;31.30;;;;;;946374;149;27391;-76
2023/05/22 11:11:42;;;;;;;5.08;4.60;;;37.40;31.70;;;;;;947446;148;26299;-76
2023/05/22 11:14:09;;;;;;;4.67;4.37;;;37.30;31.60;;;;;;945059;150;27499;-76
2023/05/22 11:16:36;;;;;;;4.97;4.58;;;37.10;31.60;;;;;;919314;152;26246;-76
2023/05/22 11:19:02;;;;;;;5.40;5.00;;;37.00;31.80;;;;;;911208;153;27343;-76
2023/05/22 11:21:29;;;;;;;5.47;4.97;;;36.80;31.90;;;;;;932104;149;26218;-76
2023/05/22 11:23:55;;;;;;;5.37;4.87;;;36.70;32.10;;;;;;926848;152;27396;-76
2023/05/22 11:26:23;;;;;;;5.25;4.80;;;36.60;31.90;;;;;;926686;152;28222;-76
2023/05/22 11:28:50;;;;;;;5.35;4.95;;;36.50;32.30;;;;;;926505;152;27466;-76
2023/05/22 11:31:15;;;;;;;5.55;5.03;;;36.30;32.60;;;;;;927117;152;27301;-76
2023/05/22 11:33:42;;;;;;;5.53;5.10;;;36.20;32.60;;;;;;919322;152;27377;-76
2023/05/22 11:36:08;;;;;;;4.60;4.30;;;36.00;32.70;;;;;;918799;152;27858;-76
2023/05/22 11:38:35;;;;;;;5.47;5.08;;;35.90;32.80;;;;;;918643;152;27310;-76
2023/05/22 11:41:02;;;;;;;5.05;4.65;;;35.80;33.40;;;;;;913051;152;27327;-76
2023/05/22 11:43:33;;;;;;;5.12;4.62;;;35.70;33.50;;;;;;918227;152;27397;-76
2023/05/22 11:46:01;;;;;;;9.25;5.50;;;35.60;34.00;;;;;;917668;152;26677;-76
2023/05/22 11:48:27;;;;;;;5.55;5.05;;;35.50;33.50;;;;;;916468;152;27402;-76
2023/05/22 11:50:54;;;;;;;5.25;4.85;;;35.40;33.60;;;;;;933694;149;27289;-76
2023/05/22 11:53:20;;;;;;;5.90;5.50;;;35.30;33.60;;;;;;914732;152;27387;-76
2023/05/22 11:55:47;;;;;;;5.20;4.80;;;35.20;33.80;;;;;;926744;152;27391;-76
2023/05/22 11:58:14;;;;;;;6.15;5.65;;;35.20;34.00;;;;;;926890;151;27316;-76
2023/05/22 12:00:40;;;;;;;6.15;5.55;;;35.10;34.30;;;;;;927545;152;27307;-76
2023/05/22 12:03:07;;;;;;;6.03;4.78;;;35.10;34.40;;;;;;927016;152;27380;-76
2023/05/22 12:05:33;;;;;;;5.85;5.45;;;35.00;34.50;;;;;;927504;152;27485;-76
2023/05/22 12:08:00;;;;;;;5.85;5.35;;;35.10;34.60;;;;;;912374;153;27371;-76
2023/05/22 12:10:26;;;;;;;5.92;5.50;;;35.00;34.60;;;;;;934549;149;27307;-77
2023/05/22 12:12:53;;;;;;;5.50;5.10;;;35.00;34.60;;;;;;934198;150;27319;-77
2023/05/22 12:15:20;;;;;;;5.70;5.15;;;35.00;34.60;;;;;;923025;151;26448;-76
2023/05/22 12:17:46;;;;;;;5.72;5.25;;;35.00;35.10;;;;;;951808;148;27362;-76
2023/05/22 12:20:15;;;;;;;5.65;5.22;;;34.90;35.00;;;;;;935875;150;27282;-76
2023/05/22 12:22:42;;;;;;;5.42;5.03;;;34.90;34.90;;;;;;943491;149;27367;-77
2023/05/22 12:25:18;;;;;;;5.80;5.30;;;34.90;35.20;;;;;;943429;149;26284;-77
2023/05/22 12:27:47;;;;;;;6.03;5.53;;;34.80;35.10;;;;;;942849;149;27352;-77
2023/05/22 12:30:14;;;;;;;11.68;5.62;;;34.70;35.10;;;;;;943852;149;27457;-77
2023/05/22 12:32:40;;;;;;;5.75;5.25;;;34.60;35.20;;;;;;943348;149;27344;-76
2023/05/22 12:35:07;;;;;;;6.00;5.05;;;34.50;34.60;;;;;;952141;148;27708;-76
2023/05/22 12:37:34;;;;;;;5.47;5.05;;;34.50;35.40;;;;;;950357;148;27364;-76
2023/05/22 12:40:00;;;;;;;5.35;4.90;;;34.40;35.50;;;;;;951417;148;27316;-76
2023/05/22 12:42:27;;;;;;;6.08;5.40;;;34.40;35.60;;;;;;951406;148;27400;-76
2023/05/22 12:44:53;;;;;;;7.15;5.53;;;34.30;36.00;;;;;;951525;147;27366;-76